Time;durP1;ratioP1;P1;durP2;ratioP2;P2;SDS_P1;SDS_P2;PMS_P1;PMS_P2;Temp;Humidity;BMP_temperature;BMP_pressure;BME280_temperature;BME280_humidity;BME280_pressure;Samples;Min_cycle;Max_cycle;Signal;HPM_P1;HPM_P2
2021/10/07 00:02:13;;;;;;;0.40;0.40;;;;;;;;;;5093435;28;20174;-67
2021/10/07 00:04:39;;;;;;;0.40;0.40;;;;;;;;;;5093821;28;20511;-67
2021/10/07 00:07:05;;;;;;;0.40;0.40;;;;;;;;;;5093815;28;20404;-67
2021/10/07 00:09:32;;;;;;;0.40;0.40;;;;;;;;;;5094000;28;20181;-67
2021/10/07 00:11:58;;;;;;;0.30;0.30;;;;;;;;;;5093542;28;20408;-67
2021/10/07 00:14:24;;;;;;;0.40;0.40;;;;;;;;;;5093569;28;20211;-67
2021/10/07 00:16:50;;;;;;;0.40;0.40;;;;;;;;;;5093577;28;20261;-67
2021/10/07 00:19:16;;;;;;;0.40;0.40;;;;;;;;;;5093664;28;20742;-67
2021/10/07 00:21:42;;;;;;;0.40;0.40;;;;;;;;;;5093639;28;20936;-67
2021/10/07 00:24:09;;;;;;;0.40;0.40;;;;;;;;;;5093593;28;20198;-67
2021/10/07 00:26:36;;;;;;;0.40;0.40;;;;;;;;;;5075353;28;20416;-67
2021/10/07 00:29:19;;;;;;;0.40;0.40;;;;;;;;;;5093395;28;20185;-66
2021/10/07 00:31:48;;;;;;;0.40;0.40;;;;;;;;;;5093310;28;20252;-67
2021/10/07 00:39:51;;;;;;;0.40;0.40;;;;;;;;;;5093175;28;20159;-66
2021/10/07 00:42:17;;;;;;;0.40;0.40;;;;;;;;;;5093174;28;20205;-67
2021/10/07 00:44:46;;;;;;;0.40;0.40;;;;;;;;;;5092287;28;20198;-67
2021/10/07 00:47:13;;;;;;;0.30;0.30;;;;;;;;;;5093051;28;20537;-67
2021/10/07 00:49:39;;;;;;;0.40;0.40;;;;;;;;;;5092979;28;20193;-67
2021/10/07 00:52:06;;;;;;;0.40;0.40;;;;;;;;;;5092409;28;20198;-67
2021/10/07 00:54:33;;;;;;;0.40;0.40;;;;;;;;;;5092880;28;20206;-67
2021/10/07 00:57:01;;;;;;;0.40;0.40;;;;;;;;;;5092814;28;20216;-67
2021/10/07 00:59:27;;;;;;;0.40;0.40;;;;;;;;;;5092916;28;20214;-67
2021/10/07 01:01:53;;;;;;;0.40;0.40;;;;;;;;;;5092604;28;20324;-67
2021/10/07 01:04:19;;;;;;;0.40;0.40;;;;;;;;;;5092661;28;20421;-67
2021/10/07 01:06:46;;;;;;;0.40;0.40;;;;;;;;;;5092818;28;20401;-67
2021/10/07 01:09:12;;;;;;;0.40;0.40;;;;;;;;;;5092681;28;20231;-67
2021/10/07 01:11:38;;;;;;;0.30;0.30;;;;;;;;;;5092296;28;20257;-67
2021/10/07 01:14:04;;;;;;;0.40;0.40;;;;;;;;;;5092278;28;20475;-67
2021/10/07 01:16:30;;;;;;;0.40;0.40;;;;;;;;;;5092594;28;20174;-67
2021/10/07 01:18:56;;;;;;;0.40;0.40;;;;;;;;;;5092259;28;20397;-67
2021/10/07 01:21:22;;;;;;;0.40;0.40;;;;;;;;;;5092224;28;20447;-67
2021/10/07 01:23:49;;;;;;;0.40;0.40;;;;;;;;;;5092329;28;20556;-66
2021/10/07 01:26:16;;;;;;;0.40;0.40;;;;;;;;;;5092259;28;20253;-67
2021/10/07 01:28:44;;;;;;;0.40;0.40;;;;;;;;;;5092489;28;20170;-67
2021/10/07 01:31:11;;;;;;;0.40;0.40;;;;;;;;;;5092069;28;20202;-67
2021/10/07 01:33:37;;;;;;;0.40;0.40;;;;;;;;;;5091965;28;20255;-67
2021/10/07 01:36:03;;;;;;;0.40;0.40;;;;;;;;;;5092362;28;20174;-67
2021/10/07 01:38:29;;;;;;;0.40;0.40;;;;;;;;;;5092200;28;20437;-67
2021/10/07 01:40:56;;;;;;;0.40;0.40;;;;;;;;;;5091825;28;20205;-67
2021/10/07 01:43:22;;;;;;;0.30;0.30;;;;;;;;;;5091994;28;20428;-67
2021/10/07 01:45:48;;;;;;;0.40;0.40;;;;;;;;;;5092106;28;20223;-67
2021/10/07 01:48:15;;;;;;;0.40;0.40;;;;;;;;;;5092005;28;20541;-67
2021/10/07 01:50:41;;;;;;;0.40;0.40;;;;;;;;;;5091748;28;20199;-67
2021/10/07 01:53:07;;;;;;;0.40;0.40;;;;;;;;;;5091702;28;20166;-67
2021/10/07 01:55:33;;;;;;;0.30;0.30;;;;;;;;;;5091439;28;20404;-67
2021/10/07 01:57:58;;;;;;;0.40;0.40;;;;;;;;;;5091862;28;20400;-67
2021/10/07 02:00:24;;;;;;;0.40;0.40;;;;;;;;;;5091601;28;20174;-67
2021/10/07 02:02:51;;;;;;;0.40;0.40;;;;;;;;;;5091412;28;20423;-67
2021/10/07 02:05:17;;;;;;;0.40;0.40;;;;;;;;;;5091332;28;20175;-67
2021/10/07 02:07:43;;;;;;;0.40;0.40;;;;;;;;;;5091828;28;20249;-67
2021/10/07 02:10:14;;;;;;;0.30;0.30;;;;;;;;;;5091031;28;20194;-66
2021/10/07 02:12:40;;;;;;;0.40;0.40;;;;;;;;;;5092037;28;20166;-67
2021/10/07 02:15:06;;;;;;;0.40;0.40;;;;;;;;;;5091573;28;20213;-67
2021/10/07 02:17:32;;;;;;;0.35;0.35;;;;;;;;;;5091662;28;20696;-67
2021/10/07 02:19:58;;;;;;;0.37;0.37;;;;;;;;;;5091569;28;20194;-67
2021/10/07 02:22:24;;;;;;;0.40;0.40;;;;;;;;;;5091484;28;20438;-67
2021/10/07 02:24:50;;;;;;;0.40;0.40;;;;;;;;;;5091705;28;21006;-66
2021/10/07 02:27:16;;;;;;;0.40;0.40;;;;;;;;;;5091599;28;20416;-67
2021/10/07 02:29:42;;;;;;;0.30;0.30;;;;;;;;;;5091549;28;20503;-67
2021/10/07 02:32:08;;;;;;;0.30;0.30;;;;;;;;;;5091257;28;20408;-67
2021/10/07 02:34:34;;;;;;;0.40;0.40;;;;;;;;;;5091197;28;20534;-67
2021/10/07 02:37:00;;;;;;;0.40;0.40;;;;;;;;;;5091486;28;20198;-67
2021/10/07 02:39:26;;;;;;;0.40;0.40;;;;;;;;;;5091643;28;20410;-69
2021/10/07 02:41:52;;;;;;;0.40;0.40;;;;;;;;;;5091632;28;20175;-67
2021/10/07 02:44:18;;;;;;;0.40;0.40;;;;;;;;;;5091353;28;20428;-67
2021/10/07 02:46:44;;;;;;;0.40;0.40;;;;;;;;;;5091323;28;20412;-67
2021/10/07 02:49:10;;;;;;;0.40;0.40;;;;;;;;;;5073139;28;20433;-67
2021/10/07 02:51:36;;;;;;;0.40;0.40;;;;;;;;;;5091147;28;20416;-67
2021/10/07 02:54:01;;;;;;;0.40;0.40;;;;;;;;;;5091157;28;20456;-67
2021/10/07 02:56:28;;;;;;;0.40;0.40;;;;;;;;;;5091395;28;20799;-67
2021/10/07 02:58:54;;;;;;;0.40;0.40;;;;;;;;;;5091362;28;20925;-67
2021/10/07 03:01:20;;;;;;;0.40;0.40;;;;;;;;;;5091165;28;20170;-67
2021/10/07 03:03:46;;;;;;;0.30;0.30;;;;;;;;;;5091245;28;20456;-67
2021/10/07 03:06:12;;;;;;;0.40;0.40;;;;;;;;;;5091484;28;20872;-67
2021/10/07 03:08:38;;;;;;;0.40;0.40;;;;;;;;;;5091461;28;20477;-67
2021/10/07 03:11:04;;;;;;;0.30;0.30;;;;;;;;;;5090977;28;20158;-67
2021/10/07 03:13:30;;;;;;;0.50;0.50;;;;;;;;;;5091112;28;20463;-67
2021/10/07 03:15:56;;;;;;;0.40;0.40;;;;;;;;;;5093766;28;20508;-67
2021/10/07 03:18:22;;;;;;;0.40;0.40;;;;;;;;;;5094756;28;20749;-67
2021/10/07 03:20:48;;;;;;;0.40;0.40;;;;;;;;;;5076375;28;20409;-67
2021/10/07 03:23:14;;;;;;;0.40;0.40;;;;;;;;;;5094625;28;20791;-67
2021/10/07 03:25:39;;;;;;;0.40;0.40;;;;;;;;;;5094819;28;21055;-67
2021/10/07 03:28:05;;;;;;;0.30;0.30;;;;;;;;;;5094657;28;20898;-66
2021/10/07 03:30:33;;;;;;;0.38;0.38;;;;;;;;;;5094454;28;20408;-67
2021/10/07 03:33:04;;;;;;;0.40;0.40;;;;;;;;;;5094161;28;20184;-66
2021/10/07 03:35:29;;;;;;;0.40;0.40;;;;;;;;;;5094554;28;20196;-67
2021/10/07 03:37:55;;;;;;;0.40;0.40;;;;;;;;;;5094429;28;20174;-67
2021/10/07 03:40:21;;;;;;;0.40;0.40;;;;;;;;;;5094103;28;20405;-67
2021/10/07 03:42:47;;;;;;;0.40;0.40;;;;;;;;;;5094398;28;20415;-67
2021/10/07 03:45:13;;;;;;;0.40;0.40;;;;;;;;;;5094094;28;20485;-67
2021/10/07 03:47:39;;;;;;;0.30;0.30;;;;;;;;;;5094207;28;20469;-67
2021/10/07 03:50:05;;;;;;;0.37;0.37;;;;;;;;;;5094006;28;20412;-67
2021/10/07 03:52:31;;;;;;;0.30;0.30;;;;;;;;;;5094216;28;20413;-66
2021/10/07 03:54:57;;;;;;;0.40;0.40;;;;;;;;;;5093982;28;20638;-67
2021/10/07 03:57:23;;;;;;;0.50;0.50;;;;;;;;;;5094029;28;20768;-67
2021/10/07 03:59:50;;;;;;;0.40;0.40;;;;;;;;;;5094390;28;20741;-67
2021/10/07 04:02:16;;;;;;;0.40;0.40;;;;;;;;;;5093696;28;20159;-67
2021/10/07 04:04:42;;;;;;;0.40;0.40;;;;;;;;;;5093896;28;20542;-67
2021/10/07 04:07:08;;;;;;;0.40;0.40;;;;;;;;;;5093862;28;20956;-67
2021/10/07 04:09:34;;;;;;;0.40;0.40;;;;;;;;;;5093846;28;20382;-67
2021/10/07 04:12:00;;;;;;;0.40;0.40;;;;;;;;;;5093559;28;20424;-67
2021/10/07 04:14:26;;;;;;;0.40;0.40;;;;;;;;;;5093437;28;20210;-66
2021/10/07 04:16:52;;;;;;;0.40;0.40;;;;;;;;;;5093657;28;20416;-66
2021/10/07 04:19:19;;;;;;;0.40;0.40;;;;;;;;;;5075490;28;20419;-67
2021/10/07 04:21:45;;;;;;;0.40;0.40;;;;;;;;;;5093555;28;20409;-66
2021/10/07 04:24:11;;;;;;;0.32;0.32;;;;;;;;;;5093521;28;20186;-66
2021/10/07 04:26:37;;;;;;;0.40;0.40;;;;;;;;;;5091724;28;20178;-67
2021/10/07 04:29:03;;;;;;;0.40;0.40;;;;;;;;;;5093428;28;20427;-67
2021/10/07 04:31:30;;;;;;;0.40;0.40;;;;;;;;;;5090134;28;20798;-67
2021/10/07 04:33:56;;;;;;;0.40;0.40;;;;;;;;;;5072843;28;20239;-67
2021/10/07 04:36:22;;;;;;;0.30;0.30;;;;;;;;;;5073166;28;20206;-67
2021/10/07 04:38:48;;;;;;;0.40;0.40;;;;;;;;;;5073290;28;20401;-67
2021/10/07 04:41:15;;;;;;;0.30;0.30;;;;;;;;;;5054981;28;20409;-67
2021/10/07 04:43:41;;;;;;;0.40;0.40;;;;;;;;;;5076173;28;20269;-66
2021/10/07 04:46:07;;;;;;;0.40;0.40;;;;;;;;;;5093383;28;20170;-67
2021/10/07 04:48:33;;;;;;;0.40;0.40;;;;;;;;;;5091874;28;20195;-67
2021/10/07 04:50:58;;;;;;;0.30;0.30;;;;;;;;;;5092655;28;20178;-67
2021/10/07 04:53:24;;;;;;;0.40;0.40;;;;;;;;;;5092806;28;20451;-67
2021/10/07 04:55:54;;;;;;;0.30;0.30;;;;;;;;;;5092233;28;20776;-68
2021/10/07 04:58:21;;;;;;;0.40;0.40;;;;;;;;;;5092913;28;20408;-68
2021/10/07 05:00:47;;;;;;;0.40;0.40;;;;;;;;;;5091970;28;20183;-68
2021/10/07 05:03:13;;;;;;;0.30;0.30;;;;;;;;;;5092833;28;20269;-68
2021/10/07 05:05:39;;;;;;;0.30;0.30;;;;;;;;;;5092484;28;20467;-68
2021/10/07 05:08:06;;;;;;;0.40;0.40;;;;;;;;;;5092506;28;20397;-68
2021/10/07 05:10:32;;;;;;;0.40;0.40;;;;;;;;;;5092518;28;20397;-68
2021/10/07 05:12:58;;;;;;;0.40;0.40;;;;;;;;;;5092483;28;20174;-68
2021/10/07 05:15:25;;;;;;;0.30;0.30;;;;;;;;;;5087593;28;20196;-68
2021/10/07 05:17:51;;;;;;;0.38;0.38;;;;;;;;;;5079302;28;20453;-68
2021/10/07 05:20:17;;;;;;;0.30;0.30;;;;;;;;;;5092067;28;20178;-67
2021/10/07 05:22:43;;;;;;;0.40;0.40;;;;;;;;;;5092355;28;20182;-68
2021/10/07 05:25:09;;;;;;;0.30;0.30;;;;;;;;;;5092126;28;20565;-68
2021/10/07 05:27:35;;;;;;;0.40;0.40;;;;;;;;;;5092388;28;20175;-68
2021/10/07 05:30:02;;;;;;;0.40;0.40;;;;;;;;;;5091741;28;20637;-68
2021/10/07 05:32:27;;;;;;;0.40;0.40;;;;;;;;;;5091616;28;20175;-68
2021/10/07 05:34:53;;;;;;;0.40;0.40;;;;;;;;;;5092209;22;20723;-66
2021/10/07 05:37:19;;;;;;;0.40;0.40;;;;;;;;;;5071536;28;20409;-66
2021/10/07 05:39:45;;;;;;;0.40;0.40;;;;;;;;;;5070809;28;20768;-66
2021/10/07 05:42:11;;;;;;;0.40;0.40;;;;;;;;;;5071740;28;20409;-66
2021/10/07 05:44:37;;;;;;;0.40;0.40;;;;;;;;;;5071334;28;20438;-65
2021/10/07 05:47:03;;;;;;;0.38;0.38;;;;;;;;;;5071117;28;20417;-66
2021/10/07 05:49:29;;;;;;;0.40;0.40;;;;;;;;;;5071787;28;20187;-66
2021/10/07 05:51:56;;;;;;;0.38;0.38;;;;;;;;;;5070070;28;20171;-66
2021/10/07 05:54:22;;;;;;;0.40;0.40;;;;;;;;;;5054905;28;20211;-65
2021/10/07 05:56:49;;;;;;;0.30;0.30;;;;;;;;;;5071561;28;20650;-66
2021/10/07 05:59:15;;;;;;;0.40;0.40;;;;;;;;;;5071566;28;20167;-66
2021/10/07 06:01:41;;;;;;;0.40;0.40;;;;;;;;;;5071390;28;20639;-66
2021/10/07 06:04:07;;;;;;;0.40;0.40;;;;;;;;;;5070959;28;20487;-67
2021/10/07 06:06:33;;;;;;;0.40;0.40;;;;;;;;;;5071278;28;20616;-66
2021/10/07 06:08:59;;;;;;;0.30;0.30;;;;;;;;;;5071471;28;20666;-66
2021/10/07 06:11:25;;;;;;;0.30;0.30;;;;;;;;;;5071167;28;20483;-66
2021/10/07 06:13:51;;;;;;;0.40;0.40;;;;;;;;;;5068389;28;20236;-66
2021/10/07 06:16:19;;;;;;;0.33;0.33;;;;;;;;;;5070193;28;20821;-66
2021/10/07 06:18:45;;;;;;;0.30;0.30;;;;;;;;;;5071408;28;20436;-66
2021/10/07 06:21:11;;;;;;;0.30;0.30;;;;;;;;;;5071161;28;20171;-66
2021/10/07 06:23:41;;;;;;;0.30;0.30;;;;;;;;;;5070939;28;20558;-65
2021/10/07 06:26:07;;;;;;;0.40;0.40;;;;;;;;;;5068538;28;20432;-66
2021/10/07 06:28:33;;;;;;;0.40;0.40;;;;;;;;;;5070892;28;20186;-66
2021/10/07 06:30:59;;;;;;;0.40;0.40;;;;;;;;;;5071279;28;20171;-65
2021/10/07 06:33:24;;;;;;;0.40;0.40;;;;;;;;;;5071578;28;20566;-66
2021/10/07 06:35:52;;;;;;;0.30;0.30;;;;;;;;;;5074248;28;20410;-65
2021/10/07 06:38:18;;;;;;;0.30;0.30;;;;;;;;;;5082758;28;20397;-65
2021/10/07 06:40:44;;;;;;;0.30;0.30;;;;;;;;;;5083504;28;20183;-65
2021/10/07 06:43:10;;;;;;;0.30;0.30;;;;;;;;;;5086266;28;20695;-66
2021/10/07 06:45:36;;;;;;;0.37;0.37;;;;;;;;;;5081959;28;20801;-65
2021/10/07 06:48:02;;;;;;;0.30;0.30;;;;;;;;;;5069071;28;20788;-65
2021/10/07 06:50:28;;;;;;;0.30;0.30;;;;;;;;;;5059339;28;20182;-66
2021/10/07 06:52:54;;;;;;;0.30;0.30;;;;;;;;;;5055227;28;20180;-65
2021/10/07 06:55:21;;;;;;;0.30;0.30;;;;;;;;;;5053741;28;20466;-65
2021/10/07 06:57:47;;;;;;;0.40;0.40;;;;;;;;;;5054033;28;20409;-66
2021/10/07 07:00:13;;;;;;;0.40;0.40;;;;;;;;;;5054310;28;20168;-65
2021/10/07 07:02:40;;;;;;;0.40;0.40;;;;;;;;;;5057458;28;20424;-66
2021/10/07 07:05:07;;;;;;;0.40;0.40;;;;;;;;;;5074856;28;20198;-66
2021/10/07 07:07:34;;;;;;;0.40;0.40;;;;;;;;;;5074919;28;20186;-66
2021/10/07 07:10:00;;;;;;;0.30;0.30;;;;;;;;;;5073788;28;20178;-65
2021/10/07 07:12:26;;;;;;;0.40;0.40;;;;;;;;;;5074106;28;20662;-66
2021/10/07 07:14:52;;;;;;;0.40;0.40;;;;;;;;;;5074624;28;20214;-66
2021/10/07 07:17:18;;;;;;;0.40;0.40;;;;;;;;;;5074881;28;20511;-66
2021/10/07 07:19:44;;;;;;;0.40;0.40;;;;;;;;;;5074916;28;20179;-66
2021/10/07 07:22:11;;;;;;;0.40;0.40;;;;;;;;;;5074091;28;20538;-66
2021/10/07 07:24:37;;;;;;;0.40;0.40;;;;;;;;;;5074506;28;20433;-66
2021/10/07 07:27:03;;;;;;;0.30;0.30;;;;;;;;;;5074830;28;20175;-66
2021/10/07 07:29:29;;;;;;;0.40;0.40;;;;;;;;;;5074431;28;20451;-66
2021/10/07 07:31:55;;;;;;;0.40;0.40;;;;;;;;;;5074313;28;20580;-66
2021/10/07 07:34:21;;;;;;;0.40;0.40;;;;;;;;;;5073762;28;20472;-65
2021/10/07 07:36:46;;;;;;;0.30;0.30;;;;;;;;;;5074332;28;20408;-66
2021/10/07 07:39:12;;;;;;;0.40;0.40;;;;;;;;;;5074493;28;20413;-66
2021/10/07 07:41:38;;;;;;;0.30;0.30;;;;;;;;;;5077305;28;20397;-66
2021/10/07 07:44:05;;;;;;;0.30;0.30;;;;;;;;;;5073836;28;20765;-66
2021/10/07 07:46:32;;;;;;;0.40;0.40;;;;;;;;;;5073990;28;20418;-66
2021/10/07 07:49:00;;;;;;;0.30;0.30;;;;;;;;;;5074196;28;20180;-66
2021/10/07 07:51:26;;;;;;;0.30;0.30;;;;;;;;;;5073908;28;20179;-66
2021/10/07 07:53:52;;;;;;;0.40;0.40;;;;;;;;;;5073878;28;20517;-66
2021/10/07 07:56:18;;;;;;;0.40;0.40;;;;;;;;;;5073451;28;20397;-65
2021/10/07 07:58:45;;;;;;;0.30;0.30;;;;;;;;;;5074085;28;20179;-67
2021/10/07 08:01:11;;;;;;;0.40;0.40;;;;;;;;;;5072621;28;20172;-65
2021/10/07 08:03:37;;;;;;;0.40;0.40;;;;;;;;;;5074153;28;20201;-66
2021/10/07 08:06:03;;;;;;;0.40;0.40;;;;;;;;;;5072461;28;20225;-66
2021/10/07 08:08:29;;;;;;;0.30;0.30;;;;;;;;;;5073271;28;20187;-66
2021/10/07 08:10:55;;;;;;;0.30;0.30;;;;;;;;;;5073511;28;20187;-66
2021/10/07 08:13:21;;;;;;;0.40;0.40;;;;;;;;;;5073351;28;20424;-65
2021/10/07 08:15:48;;;;;;;0.30;0.30;;;;;;;;;;5073595;28;20402;-66
2021/10/07 08:18:15;;;;;;;0.30;0.30;;;;;;;;;;5073045;28;20178;-65
2021/10/07 08:20:41;;;;;;;0.40;0.40;;;;;;;;;;5073236;28;20535;-66
2021/10/07 08:23:10;;;;;;;0.30;0.30;;;;;;;;;;5073686;28;20534;-66
2021/10/07 08:25:36;;;;;;;0.30;0.30;;;;;;;;;;5073209;28;20183;-66
2021/10/07 08:28:03;;;;;;;0.40;0.40;;;;;;;;;;5073445;28;20174;-66
2021/10/07 08:30:28;;;;;;;0.40;0.40;;;;;;;;;;5072585;28;20401;-66
2021/10/07 08:32:54;;;;;;;0.30;0.30;;;;;;;;;;5073169;28;20173;-66
2021/10/07 08:35:20;;;;;;;0.40;0.40;;;;;;;;;;5072763;28;20495;-66
2021/10/07 08:37:47;;;;;;;0.30;0.30;;;;;;;;;;5073343;28;20463;-66
2021/10/07 08:40:15;;;;;;;0.40;0.40;;;;;;;;;;5072278;28;20838;-65
2021/10/07 08:42:41;;;;;;;0.40;0.40;;;;;;;;;;5073119;28;20164;-66
2021/10/07 08:45:08;;;;;;;0.30;0.30;;;;;;;;;;5072907;28;20191;-66
2021/10/07 08:47:37;;;;;;;0.30;0.30;;;;;;;;;;5073002;28;20815;-66
2021/10/07 08:50:03;;;;;;;0.32;0.32;;;;;;;;;;5072661;28;20237;-66
2021/10/07 08:52:29;;;;;;;0.40;0.40;;;;;;;;;;5072399;28;20184;-66
2021/10/07 08:54:55;;;;;;;0.30;0.30;;;;;;;;;;5072769;28;20299;-66
2021/10/07 08:57:21;;;;;;;0.30;0.30;;;;;;;;;;5072966;28;20407;-66
2021/10/07 08:59:47;;;;;;;0.30;0.30;;;;;;;;;;5072692;28;20908;-66
2021/10/07 09:02:24;;;;;;;0.40;0.40;;;;;;;;;;5072204;28;20406;-66
2021/10/07 09:04:50;;;;;;;0.30;0.30;;;;;;;;;;5072506;28;20524;-66
2021/10/07 09:07:16;;;;;;;0.30;0.30;;;;;;;;;;5072754;28;20470;-66
2021/10/07 09:09:42;;;;;;;0.30;0.30;;;;;;;;;;5072888;28;20917;-66
2021/10/07 09:12:09;;;;;;;0.30;0.30;;;;;;;;;;5071987;28;20413;-66
2021/10/07 09:14:36;;;;;;;0.30;0.30;;;;;;;;;;5072436;28;20201;-66
2021/10/07 09:17:04;;;;;;;0.30;0.30;;;;;;;;;;5075988;28;20489;-65
2021/10/07 09:19:33;;;;;;;0.30;0.30;;;;;;;;;;5072626;28;20941;-66
2021/10/07 09:22:01;;;;;;;0.30;0.30;;;;;;;;;;5072165;28;20398;-66
2021/10/07 09:24:35;;;;;;;0.30;0.30;;;;;;;;;;5071978;28;20621;-66
2021/10/07 09:27:02;;;;;;;0.30;0.30;;;;;;;;;;5071185;28;20388;-66
2021/10/07 09:29:36;;;;;;;0.30;0.30;;;;;;;;;;5070826;28;20696;-66
2021/10/07 09:32:03;;;;;;;0.30;0.30;;;;;;;;;;5072234;28;20171;-66
2021/10/07 09:34:40;;;;;;;0.30;0.30;;;;;;;;;;5071741;28;20710;-66
2021/10/07 09:37:18;;;;;;;0.30;0.30;;;;;;;;;;5071990;28;20408;-66
2021/10/07 09:39:52;;;;;;;0.30;0.30;;;;;;;;;;5072045;28;20199;-66
2021/10/07 09:42:19;;;;;;;0.40;0.40;;;;;;;;;;5071671;28;20172;-66
2021/10/07 09:44:58;;;;;;;0.40;0.40;;;;;;;;;;5070141;28;20411;-66
2021/10/07 09:47:34;;;;;;;0.30;0.30;;;;;;;;;;5071604;28;20446;-66
2021/10/07 09:50:26;;;;;;;0.30;0.30;;;;;;;;;;5071883;28;20669;-65
2021/10/07 09:53:03;;;;;;;0.30;0.30;;;;;;;;;;5068151;28;20416;-65
2021/10/07 09:55:37;;;;;;;0.30;0.30;;;;;;;;;;5071682;28;20202;-65
2021/10/07 09:58:13;;;;;;;0.30;0.30;;;;;;;;;;5071814;28;20296;-66
2021/10/07 10:00:40;;;;;;;0.30;0.30;;;;;;;;;;5071384;28;20201;-65
2021/10/07 10:03:08;;;;;;;0.40;0.40;;;;;;;;;;5071114;28;20401;-65
2021/10/07 10:05:35;;;;;;;0.30;0.30;;;;;;;;;;5071253;28;20453;-66
2021/10/07 10:08:03;;;;;;;0.30;0.30;;;;;;;;;;5071157;28;20165;-66
2021/10/07 10:10:29;;;;;;;0.30;0.30;;;;;;;;;;5070485;28;20404;-66
2021/10/07 10:12:55;;;;;;;0.30;0.30;;;;;;;;;;5070455;28;20774;-66
2021/10/07 10:15:21;;;;;;;0.30;0.30;;;;;;;;;;5071444;28;20433;-65
2021/10/07 10:17:48;;;;;;;0.30;0.30;;;;;;;;;;5071355;28;20772;-66
2021/10/07 10:20:22;;;;;;;0.30;0.30;;;;;;;;;;5071579;28;20415;-65
2021/10/07 10:22:54;;;;;;;0.30;0.30;;;;;;;;;;5069743;28;20415;-66
2021/10/07 10:25:20;;;;;;;0.30;0.30;;;;;;;;;;5073549;28;20691;-66
2021/10/07 10:27:47;;;;;;;0.30;0.30;;;;;;;;;;5073598;28;20560;-65
2021/10/07 10:30:25;;;;;;;0.30;0.30;;;;;;;;;;5075358;28;20416;-65
2021/10/07 10:32:51;;;;;;;0.30;0.30;;;;;;;;;;5075019;28;20427;-66
2021/10/07 10:35:29;;;;;;;0.30;0.30;;;;;;;;;;5075187;28;20212;-65
2021/10/07 10:37:56;;;;;;;0.30;0.30;;;;;;;;;;5075337;28;20773;-66
2021/10/07 10:40:22;;;;;;;0.30;0.30;;;;;;;;;;5075081;28;20409;-66
2021/10/07 10:42:48;;;;;;;0.30;0.30;;;;;;;;;;5074012;28;20187;-65
2021/10/07 10:45:14;;;;;;;0.30;0.30;;;;;;;;;;5074926;28;20951;-65
2021/10/07 10:47:41;;;;;;;0.30;0.30;;;;;;;;;;5075123;28;20485;-66
2021/10/07 10:50:15;;;;;;;0.30;0.30;;;;;;;;;;5074609;28;20408;-66
2021/10/07 10:52:41;;;;;;;0.30;0.30;;;;;;;;;;5074919;28;20901;-66
2021/10/07 10:55:09;;;;;;;0.30;0.30;;;;;;;;;;5074332;28;20448;-66
2021/10/07 10:57:36;;;;;;;0.30;0.30;;;;;;;;;;5074906;28;20404;-66
2021/10/07 11:00:12;;;;;;;0.30;0.30;;;;;;;;;;5074874;28;20405;-65
2021/10/07 11:02:42;;;;;;;0.30;0.30;;;;;;;;;;5074787;28;20669;-66
2021/10/07 11:05:16;;;;;;;0.30;0.30;;;;;;;;;;5074693;28;20807;-65
2021/10/07 11:07:42;;;;;;;0.30;0.30;;;;;;;;;;5074545;28;20416;-66
2021/10/07 11:10:09;;;;;;;0.30;0.30;;;;;;;;;;5074740;28;20417;-66
2021/10/07 11:12:55;;;;;;;0.30;0.30;;;;;;;;;;5074635;28;20461;-66
2021/10/07 11:15:22;;;;;;;0.30;0.30;;;;;;;;;;5074704;28;20465;-66
2021/10/07 11:17:49;;;;;;;0.30;0.30;;;;;;;;;;5074143;28;20409;-66
2021/10/07 11:20:17;;;;;;;0.30;0.30;;;;;;;;;;5074498;28;20827;-66
2021/10/07 11:23:01;;;;;;;0.30;0.30;;;;;;;;;;5073062;28;20413;-66
2021/10/07 11:25:27;;;;;;;0.30;0.30;;;;;;;;;;5074464;28;20429;-66
2021/10/07 11:27:53;;;;;;;0.30;0.30;;;;;;;;;;5074151;28;20413;-66
2021/10/07 11:30:22;;;;;;;0.30;0.30;;;;;;;;;;5074170;28;20421;-66
2021/10/07 11:32:48;;;;;;;0.30;0.30;;;;;;;;;;5074428;28;20458;-65
2021/10/07 11:35:15;;;;;;;0.30;0.30;;;;;;;;;;5129547;22;20462;-67
2021/10/07 11:37:54;;;;;;;0.30;0.30;;;;;;;;;;5094409;28;20510;-66
2021/10/07 11:40:23;;;;;;;0.30;0.30;;;;;;;;;;5093615;28;20793;-67
2021/10/07 11:42:49;;;;;;;0.30;0.30;;;;;;;;;;5094394;28;20537;-66
2021/10/07 11:45:23;;;;;;;0.30;0.30;;;;;;;;;;5094400;28;20474;-66
2021/10/07 11:47:50;;;;;;;0.30;0.30;;;;;;;;;;5094329;28;20365;-67
2021/10/07 11:50:16;;;;;;;0.30;0.30;;;;;;;;;;5093622;28;20815;-66
2021/10/07 11:52:42;;;;;;;0.30;0.30;;;;;;;;;;5093556;28;20404;-67
2021/10/07 11:55:08;;;;;;;0.30;0.30;;;;;;;;;;5093983;28;20460;-67
2021/10/07 11:57:34;;;;;;;0.30;0.30;;;;;;;;;;5094046;28;20409;-65
2021/10/07 12:00:00;;;;;;;0.30;0.30;;;;;;;;;;5093834;28;20411;-67
2021/10/07 12:02:26;;;;;;;0.30;0.30;;;;;;;;;;5093265;28;20466;-66
2021/10/07 12:05:12;;;;;;;0.30;0.30;;;;;;;;;;5093659;28;20493;-66
2021/10/07 12:07:38;;;;;;;0.30;0.30;;;;;;;;;;5093818;28;20764;-66
2021/10/07 12:10:04;;;;;;;0.30;0.30;;;;;;;;;;5093653;28;20858;-67
2021/10/07 12:12:30;;;;;;;0.30;0.30;;;;;;;;;;5093627;28;20409;-67
2021/10/07 12:14:56;;;;;;;0.30;0.30;;;;;;;;;;5093484;28;20517;-68
2021/10/07 12:17:24;;;;;;;0.30;0.30;;;;;;;;;;5093720;28;20413;-67
2021/10/07 12:19:50;;;;;;;0.30;0.30;;;;;;;;;;5093689;28;20428;-68
2021/10/07 12:22:26;;;;;;;0.30;0.30;;;;;;;;;;5093484;28;20780;-67
2021/10/07 12:24:56;;;;;;;0.30;0.30;;;;;;;;;;5092940;28;20812;-67
2021/10/07 12:27:31;;;;;;;0.30;0.30;;;;;;;;;;5093475;28;20408;-66
2021/10/07 12:30:03;;;;;;;0.30;0.30;;;;;;;;;;5093391;28;20408;-67
2021/10/07 12:32:29;;;;;;;0.30;0.30;;;;;;;;;;5093493;28;20374;-67
2021/10/07 12:34:57;;;;;;;0.30;0.30;;;;;;;;;;5092798;28;20206;-67
2021/10/07 12:37:27;;;;;;;0.30;0.30;;;;;;;;;;5093222;28;20411;-67
2021/10/07 12:39:53;;;;;;;0.30;0.30;;;;;;;;;;5093194;28;20383;-66
2021/10/07 12:42:21;;;;;;;0.30;0.30;;;;;;;;;;5093049;28;20461;-66
2021/10/07 12:44:46;;;;;;;0.30;0.30;;;;;;;;;;5092885;28;20468;-66
2021/10/07 12:47:20;;;;;;;0.30;0.30;;;;;;;;;;5091954;28;20493;-65
2021/10/07 12:49:48;;;;;;;0.30;0.30;;;;;;;;;;5092943;28;20503;-65
2021/10/07 12:52:13;;;;;;;0.30;0.30;;;;;;;;;;5092983;28;20462;-66
2021/10/07 12:54:39;;;;;;;0.30;0.30;;;;;;;;;;5092334;28;20552;-66
2021/10/07 12:57:06;;;;;;;0.30;0.30;;;;;;;;;;5092243;28;20483;-66
2021/10/07 12:59:51;;;;;;;0.30;0.30;;;;;;;;;;5092826;28;20379;-66
2021/10/07 13:02:30;;;;;;;0.30;0.30;;;;;;;;;;5092544;28;20404;-67
2021/10/07 13:04:57;;;;;;;0.30;0.30;;;;;;;;;;5074686;28;20432;-67
2021/10/07 13:07:26;;;;;;;0.30;0.30;;;;;;;;;;5092859;28;20435;-66
2021/10/07 13:09:52;;;;;;;0.30;0.30;;;;;;;;;;5092167;28;20390;-66
2021/10/07 13:12:18;;;;;;;0.30;0.30;;;;;;;;;;5092522;28;20903;-66
2021/10/07 13:15:04;;;;;;;0.30;0.30;;;;;;;;;;5092435;28;20543;-66
2021/10/07 13:17:30;;;;;;;0.30;0.30;;;;;;;;;;5092406;28;20428;-65
2021/10/07 13:19:56;;;;;;;0.30;0.30;;;;;;;;;;5092116;28;20408;-67
2021/10/07 13:22:22;;;;;;;0.30;0.30;;;;;;;;;;5092388;28;20433;-66
2021/10/07 13:24:48;;;;;;;0.30;0.30;;;;;;;;;;5092395;28;20464;-66
2021/10/07 13:27:21;;;;;;;0.30;0.30;;;;;;;;;;5092466;28;20906;-66
2021/10/07 13:29:47;;;;;;;0.30;0.30;;;;;;;;;;5092141;28;20439;-66
2021/10/07 13:32:16;;;;;;;0.30;0.30;;;;;;;;;;5091547;28;20412;-68
2021/10/07 13:34:42;;;;;;;0.40;0.40;;;;;;;;;;5091860;28;20469;-65
2021/10/07 13:37:07;;;;;;;0.30;0.30;;;;;;;;;;5092331;28;20783;-65
2021/10/07 13:39:33;;;;;;;0.30;0.30;;;;;;;;;;5092417;28;20385;-65
2021/10/07 13:41:59;;;;;;;0.30;0.30;;;;;;;;;;5091407;28;20704;-66
2021/10/07 13:44:25;;;;;;;0.30;0.30;;;;;;;;;;5091917;28;20454;-66
2021/10/07 13:46:51;;;;;;;0.30;0.30;;;;;;;;;;5092056;28;20464;-67
2021/10/07 13:49:17;;;;;;;0.30;0.30;;;;;;;;;;5092019;28;20755;-67
2021/10/07 13:51:43;;;;;;;0.30;0.30;;;;;;;;;;5091820;28;20412;-68
2021/10/07 13:54:09;;;;;;;0.30;0.30;;;;;;;;;;5091313;28;20448;-66
2021/10/07 13:56:35;;;;;;;0.30;0.30;;;;;;;;;;5095844;28;20404;-66
2021/10/07 13:59:01;;;;;;;0.30;0.30;;;;;;;;;;5091444;28;20429;-67
2021/10/07 14:01:27;;;;;;;0.30;0.30;;;;;;;;;;5091426;28;20403;-66
2021/10/07 14:03:53;;;;;;;0.30;0.30;;;;;;;;;;5091383;28;20377;-67
2021/10/07 14:06:19;;;;;;;0.30;0.30;;;;;;;;;;5091993;28;20501;-66
2021/10/07 14:08:45;;;;;;;0.30;0.30;;;;;;;;;;5091731;28;20441;-67
2021/10/07 14:11:11;;;;;;;0.30;0.30;;;;;;;;;;5091667;28;20418;-66
2021/10/07 14:13:38;;;;;;;0.30;0.30;;;;;;;;;;5092064;28;20218;-67
2021/10/07 14:16:04;;;;;;;0.30;0.30;;;;;;;;;;5085981;28;20963;-66
2021/10/07 14:18:31;;;;;;;0.30;0.30;;;;;;;;;;5071360;28;20406;-67
2021/10/07 14:20:57;;;;;;;0.30;0.30;;;;;;;;;;5071118;28;20406;-66
2021/10/07 14:23:23;;;;;;;0.40;0.40;;;;;;;;;;5071588;28;20171;-67
2021/10/07 14:25:49;;;;;;;0.30;0.30;;;;;;;;;;5071241;28;20758;-67
2021/10/07 14:28:16;;;;;;;0.30;0.30;;;;;;;;;;5071000;28;20775;-66
2021/10/07 14:30:42;;;;;;;0.30;0.30;;;;;;;;;;5053056;28;20388;-65
2021/10/07 14:33:08;;;;;;;0.30;0.30;;;;;;;;;;5071205;28;20420;-66
2021/10/07 14:35:34;;;;;;;0.30;0.30;;;;;;;;;;5070702;28;20469;-67
2021/10/07 14:38:00;;;;;;;0.30;0.30;;;;;;;;;;5070722;28;20410;-67
2021/10/07 14:40:26;;;;;;;0.30;0.30;;;;;;;;;;5071050;28;20441;-66
2021/10/07 14:42:52;;;;;;;0.30;0.30;;;;;;;;;;5071480;28;21007;-65
2021/10/07 14:45:19;;;;;;;0.30;0.30;;;;;;;;;;5071088;28;20441;-65
2021/10/07 14:47:45;;;;;;;0.30;0.30;;;;;;;;;;5071167;28;20816;-66
2021/10/07 14:50:11;;;;;;;0.30;0.30;;;;;;;;;;5070830;28;20413;-66